Fahri Eksioglu — TCUH — position and weather

sailwx.info

Track history (hours):
 
Tides and Currents Weather Stations Pressure Air Temp Water Temp Dewpoint Dewpoint Depression Visibility Wind Speed Wind Dir Waves Ship Positions

Fahri Eksioglu

Last reported at 2015-Mar-13 21:18 UTC. Time now 2015-Mar-31 00:20 UTC.
Position N 41°16' E 029°04'.
Warning: this ship's position is 17 days out of date.

Length 89 m; draft 5.5 m.

Type: Cargo ship. MMSI: 271000450.

Date/timePositionNaut miles runAvg speedWind from/ knotsBaromVisibWave heightAir tempDewpointWater temp
2015-Mar-13 21:18N 41°16' E 029°04'0 0.0
2015-Mar-13 15:11N 41°16' E 029°04'  
2015-Mar-09 15:32N 40°60' E 028°60'4 4.4
2015-Mar-09 14:33N 40°56' E 028°57'3 2.3
2015-Mar-09 13:26N 40°58' E 028°56'0 0.0
2015-Mar-09 11:14N 40°58' E 028°56'0 0.0
2015-Mar-09 09:23N 40°58' E 028°56'0 0.0
2015-Mar-09 08:10N 40°58' E 028°56'0 0.0
2015-Mar-09 07:19N 40°58' E 028°56'0 0.0
2015-Mar-09 06:30N 40°58' E 028°56'0 0.0
2015-Mar-09 05:21N 40°58' E 028°56'0 0.0
2015-Mar-09 04:15N 40°58' E 028°56'0 0.0
2015-Mar-09 03:30N 40°58' E 028°56'0 0.0
2015-Mar-09 02:09N 40°58' E 028°56'0 0.0
2015-Mar-09 01:27N 40°58' E 028°56'0 0.0
2015-Mar-09 00:32N 40°58' E 028°56'0 0.0
2015-Mar-08 23:11N 40°58' E 028°56'0 0.0
2015-Mar-08 22:13N 40°58' E 028°56'0 0.0
2015-Mar-08 21:12N 40°58' E 028°56'0 0.0
2015-Mar-08 20:21N 40°58' E 028°56'0 0.0
2015-Mar-08 19:24N 40°58' E 028°56'0 0.0
2015-Mar-08 18:27N 40°58' E 028°56'0 0.0
2015-Mar-08 16:22N 40°58' E 028°56'0 0.0
2015-Mar-08 13:24N 40°58' E 028°56'0 0.0
2015-Mar-08 11:18N 40°58' E 028°56'0 0.0
2015-Mar-08 08:30N 40°58' E 028°56'0 0.0
2015-Mar-08 07:29N 40°58' E 028°56'0 0.0
2015-Mar-08 05:33N 40°58' E 028°56'0 0.0
2015-Mar-08 04:32N 40°58' E 028°56'0 0.0
2015-Mar-08 03:26N 40°58' E 028°56'0 0.0
2015-Mar-08 02:32N 40°58' E 028°56'0 0.0
2015-Mar-08 01:23N 40°58' E 028°56'0 0.0
2015-Mar-08 00:20N 40°58' E 028°56'0 0.0
2015-Mar-07 23:32N 40°58' E 028°56'0 0.0
2015-Mar-07 21:26N 40°58' E 028°56'0 0.0
2015-Mar-07 20:32N 40°58' E 028°56'0 0.0
2015-Mar-07 19:28N 40°58' E 028°56'0 0.0
2015-Mar-07 16:16N 40°58' E 028°56'0 0.0
2015-Mar-07 15:16N 40°58' E 028°56'0 0.0
2015-Mar-07 14:25N 40°58' E 028°56'0 0.0
2015-Mar-07 13:15N 40°58' E 028°56'0 0.0
2015-Mar-07 11:27N 40°58' E 028°56'0 0.0
2015-Mar-07 10:20N 40°58' E 028°56'0 0.0
2015-Mar-07 09:23N 40°58' E 028°56'0 0.0
2015-Mar-07 08:20N 40°58' E 028°56'0 0.0
2015-Mar-07 07:32N 40°58' E 028°56'8 0.6
2015-Mar-06 16:32N 40°51' E 028°50'  
Track history (hours):
 
Tides and Currents Weather Stations Pressure Air Temp Water Temp Dewpoint Dewpoint Depression Visibility Wind Speed Wind Dir Waves Ship Positions

Fahri Eksioglu

Last reported at 2015-Mar-13 21:18 UTC. Time now 2015-Mar-31 00:20 UTC.
Position N 41°16' E 029°04'.
Warning: this ship's position is 17 days out of date.

Length 89 m; draft 5.5 m.

Type: Cargo ship. MMSI: 271000450.

Date/timePositionNaut miles runAvg speedWind from/ knotsBaromVisibWave heightAir tempDewpointWater temp
2015-Mar-13 21:18N 41°16' E 029°04'0 0.0
2015-Mar-13 15:11N 41°16' E 029°04'  
2015-Mar-09 15:32N 40°60' E 028°60'4 4.4
2015-Mar-09 14:33N 40°56' E 028°57'3 2.3
2015-Mar-09 13:26N 40°58' E 028°56'0 0.0
2015-Mar-09 11:14N 40°58' E 028°56'0 0.0
2015-Mar-09 09:23N 40°58' E 028°56'0 0.0
2015-Mar-09 08:10N 40°58' E 028°56'0 0.0
2015-Mar-09 07:19N 40°58' E 028°56'0 0.0
2015-Mar-09 06:30N 40°58' E 028°56'0 0.0
2015-Mar-09 05:21N 40°58' E 028°56'0 0.0
2015-Mar-09 04:15N 40°58' E 028°56'0 0.0
2015-Mar-09 03:30N 40°58' E 028°56'0 0.0
2015-Mar-09 02:09N 40°58' E 028°56'0 0.0
2015-Mar-09 01:27N 40°58' E 028°56'0 0.0
2015-Mar-09 00:32N 40°58' E 028°56'0 0.0
2015-Mar-08 23:11N 40°58' E 028°56'0 0.0
2015-Mar-08 22:13N 40°58' E 028°56'0 0.0
2015-Mar-08 21:12N 40°58' E 028°56'0 0.0
2015-Mar-08 20:21N 40°58' E 028°56'0 0.0
2015-Mar-08 19:24N 40°58' E 028°56'0 0.0
2015-Mar-08 18:27N 40°58' E 028°56'0 0.0
2015-Mar-08 16:22N 40°58' E 028°56'0 0.0
2015-Mar-08 13:24N 40°58' E 028°56'0 0.0
2015-Mar-08 11:18N 40°58' E 028°56'0 0.0
2015-Mar-08 08:30N 40°58' E 028°56'0 0.0
2015-Mar-08 07:29N 40°58' E 028°56'0 0.0
2015-Mar-08 05:33N 40°58' E 028°56'0 0.0
2015-Mar-08 04:32N 40°58' E 028°56'0 0.0
2015-Mar-08 03:26N 40°58' E 028°56'0 0.0
2015-Mar-08 02:32N 40°58' E 028°56'0 0.0
2015-Mar-08 01:23N 40°58' E 028°56'0 0.0
2015-Mar-08 00:20N 40°58' E 028°56'0 0.0
2015-Mar-07 23:32N 40°58' E 028°56'0 0.0
2015-Mar-07 21:26N 40°58' E 028°56'0 0.0
2015-Mar-07 20:32N 40°58' E 028°56'0 0.0
2015-Mar-07 19:28N 40°58' E 028°56'0 0.0
2015-Mar-07 16:16N 40°58' E 028°56'0 0.0
2015-Mar-07 15:16N 40°58' E 028°56'0 0.0
2015-Mar-07 14:25N 40°58' E 028°56'0 0.0
2015-Mar-07 13:15N 40°58' E 028°56'0 0.0
2015-Mar-07 11:27N 40°58' E 028°56'0 0.0
2015-Mar-07 10:20N 40°58' E 028°56'0 0.0
2015-Mar-07 09:23N 40°58' E 028°56'0 0.0
2015-Mar-07 08:20N 40°58' E 028°56'0 0.0
2015-Mar-07 07:32N 40°58' E 028°56'8 0.6
2015-Mar-06 16:32N 40°51' E 028°50'  

Dump ship's entire track history